QTR22U GMMN-LPFR
Flight info
| Callsign | QTR22U |
|---|---|
| Flight time | 0h 47m |
| Altitude | 32000 |
| Route | LAKAM DCT MARJA DCT ABODA DCT AMSEL DCT GIMAL |
| Aircraft | A332/H-SDE3GHIJ2J3J5M1RVWXY/LB2D1 |
Departure
| Time | 2026-05-04 17:56 |
|---|---|
| Airport | Mohammed V International Airport (GMMN) |
Arrival
| Time | 2026-05-04 18:44 |
|---|---|
| Airport | Faro - Gago Coutinho International Airport (LPFR) |
| Time | Latitude | Longitude | Altitude | Speed | Heading |
|---|---|---|---|---|---|
| 2026-05-04 17:39 | 33.37310 | -7.58255 | 653 ft | 0 kts | 63° |
| 2026-05-04 17:45 | 33.37302 | -7.58273 | 656 ft | 3 kts | 63° |
| 2026-05-04 17:46 | 33.37293 | -7.58293 | 657 ft | 3 kts | 63° |
| 2026-05-04 17:46 | 33.37283 | -7.58313 | 657 ft | 3 kts | 66° |
| 2026-05-04 17:46 | 33.37279 | -7.58335 | 658 ft | 3 kts | 116° |
| 2026-05-04 17:46 | 33.37291 | -7.58352 | 657 ft | 2 kts | 162° |
| 2026-05-04 17:47 | 33.37302 | -7.58356 | 657 ft | 0 kts | 162° |
| 2026-05-04 17:48 | 33.37303 | -7.58356 | 657 ft | 1 kts | 162° |
| 2026-05-04 17:49 | 33.37293 | -7.58349 | 656 ft | 8 kts | 151° |
| 2026-05-04 17:49 | 33.37190 | -7.58301 | 655 ft | 23 kts | 162° |
| 2026-05-04 17:49 | 33.37072 | -7.58259 | 657 ft | 0 kts | 164° |
| 2026-05-04 17:49 | 33.37060 | -7.58255 | 656 ft | 5 kts | 164° |
| 2026-05-04 17:50 | 33.36999 | -7.58235 | 657 ft | 12 kts | 170° |
| 2026-05-04 17:50 | 33.36946 | -7.58268 | 655 ft | 8 kts | 238° |
| 2026-05-04 17:50 | 33.36913 | -7.58367 | 657 ft | 17 kts | 253° |
| 2026-05-04 17:50 | 33.36849 | -7.58460 | 655 ft | 12 kts | 190° |
| 2026-05-04 17:51 | 33.36763 | -7.58432 | 658 ft | 18 kts | 162° |
| 2026-05-04 17:51 | 33.36608 | -7.58376 | 659 ft | 28 kts | 163° |
| 2026-05-04 17:51 | 33.36386 | -7.58299 | 656 ft | 38 kts | 164° |
| 2026-05-04 17:51 | 33.36165 | -7.58227 | 657 ft | 29 kts | 164° |
| 2026-05-04 17:52 | 33.35976 | -7.58162 | 658 ft | 27 kts | 164° |
| 2026-05-04 17:52 | 33.35857 | -7.58122 | 658 ft | 26 kts | 163° |
| 2026-05-04 17:52 | 33.35685 | -7.58062 | 659 ft | 25 kts | 163° |
| 2026-05-04 17:52 | 33.35498 | -7.58000 | 660 ft | 20 kts | 162° |
| 2026-05-04 17:53 | 33.35414 | -7.57969 | 660 ft | 19 kts | 162° |
| 2026-05-04 17:53 | 33.35300 | -7.57948 | 661 ft | 12 kts | 195° |
| 2026-05-04 17:53 | 33.35269 | -7.57981 | 661 ft | 3 kts | 236° |
| 2026-05-04 17:53 | 33.35256 | -7.58012 | 661 ft | 1 kts | 245° |
| 2026-05-04 17:54 | 33.35247 | -7.58039 | 660 ft | 8 kts | 249° |
| 2026-05-04 17:55 | 33.35221 | -7.58130 | 661 ft | 15 kts | 253° |
| 2026-05-04 17:55 | 33.35223 | -7.58248 | 662 ft | 10 kts | 305° |
| 2026-05-04 17:55 | 33.35279 | -7.58284 | 662 ft | 12 kts | 341° |
| 2026-05-04 17:55 | 33.35465 | -7.58350 | 660 ft | 56 kts | 344° |
| 2026-05-04 17:56 | 33.36044 | -7.58543 | 658 ft | 115 kts | 344° |
| 2026-05-04 17:56 | 33.36967 | -7.58857 | 657 ft | 163 kts | 347° |
| 2026-05-04 17:56 | 33.38097 | -7.59249 | 1268 ft | 166 kts | 345° |
| 2026-05-04 17:56 | 33.39185 | -7.59679 | 2057 ft | 163 kts | 343° |
| 2026-05-04 17:57 | 33.40246 | -7.60298 | 2573 ft | 186 kts | 321° |
| 2026-05-04 17:57 | 33.41118 | -7.61600 | 2997 ft | 214 kts | 311° |
| 2026-05-04 17:57 | 33.42012 | -7.63124 | 3590 ft | 233 kts | 307° |
| 2026-05-04 17:57 | 33.43029 | -7.64710 | 4262 ft | 250 kts | 315° |
| 2026-05-04 17:58 | 33.44475 | -7.65931 | 5085 ft | 260 kts | 338° |
| 2026-05-04 17:58 | 33.46215 | -7.66569 | 6097 ft | 263 kts | 345° |
| 2026-05-04 17:58 | 33.48046 | -7.66917 | 6980 ft | 270 kts | 352° |
| 2026-05-04 17:58 | 33.49958 | -7.67098 | 7748 ft | 280 kts | 353° |
| 2026-05-04 17:59 | 33.51931 | -7.67206 | 8563 ft | 287 kts | 354° |
| 2026-05-04 17:59 | 33.53954 | -7.67302 | 9376 ft | 293 kts | 354° |
| 2026-05-04 17:59 | 33.58105 | -7.67553 | 10323 ft | 312 kts | 353° |
| 2026-05-04 18:00 | 33.60303 | -7.67725 | 10545 ft | 329 kts | 353° |
| 2026-05-04 18:00 | 33.62647 | -7.67925 | 10758 ft | 346 kts | 353° |
| 2026-05-04 18:00 | 33.65108 | -7.68141 | 10981 ft | 362 kts | 353° |
| 2026-05-04 18:00 | 33.67659 | -7.68366 | 11305 ft | 372 kts | 353° |
| 2026-05-04 18:01 | 33.70263 | -7.68592 | 11834 ft | 376 kts | 353° |
| 2026-05-04 18:01 | 33.72887 | -7.68817 | 12425 ft | 378 kts | 353° |
| 2026-05-04 18:01 | 33.75518 | -7.69043 | 13016 ft | 380 kts | 353° |
| 2026-05-04 18:02 | 33.80834 | -7.69500 | 14073 ft | 386 kts | 353° |
| 2026-05-04 18:02 | 33.83520 | -7.69733 | 14539 ft | 388 kts | 353° |
| 2026-05-04 18:02 | 33.86230 | -7.69968 | 14995 ft | 391 kts | 352° |
| 2026-05-04 18:02 | 33.88953 | -7.70205 | 15476 ft | 394 kts | 352° |
| 2026-05-04 18:03 | 33.91694 | -7.70444 | 15951 ft | 396 kts | 352° |
| 2026-05-04 18:03 | 33.94454 | -7.70684 | 16412 ft | 399 kts | 352° |
| 2026-05-04 18:03 | 33.97230 | -7.70926 | 16873 ft | 402 kts | 352° |
| 2026-05-04 18:03 | 33.99994 | -7.71167 | 17350 ft | 404 kts | 352° |
| 2026-05-04 18:04 | 34.02802 | -7.71412 | 17800 ft | 406 kts | 352° |
| 2026-05-04 18:04 | 34.05634 | -7.71660 | 18239 ft | 409 kts | 352° |
| 2026-05-04 18:04 | 34.11350 | -7.72159 | 19020 ft | 414 kts | 352° |
| 2026-05-04 18:05 | 34.14231 | -7.72411 | 19411 ft | 416 kts | 351° |
| 2026-05-04 18:05 | 34.17129 | -7.72664 | 19798 ft | 418 kts | 351° |
| 2026-05-04 18:05 | 34.20044 | -7.72920 | 20169 ft | 421 kts | 351° |
| 2026-05-04 18:05 | 34.22985 | -7.73177 | 20551 ft | 423 kts | 351° |
| 2026-05-04 18:06 | 34.28838 | -7.73690 | 21348 ft | 426 kts | 351° |
| 2026-05-04 18:06 | 34.31793 | -7.73949 | 21820 ft | 424 kts | 350° |
| 2026-05-04 18:06 | 34.34701 | -7.74199 | 22695 ft | 412 kts | 350° |
| 2026-05-04 18:07 | 34.37523 | -7.74438 | 23627 ft | 400 kts | 349° |
| 2026-05-04 18:07 | 34.40264 | -7.74670 | 24369 ft | 389 kts | 349° |
| 2026-05-04 18:07 | 34.42923 | -7.74897 | 25101 ft | 377 kts | 348° |
| 2026-05-04 18:07 | 34.45500 | -7.75119 | 25833 ft | 365 kts | 348° |
| 2026-05-04 18:08 | 34.48010 | -7.75339 | 26385 ft | 359 kts | 347° |
| 2026-05-04 18:08 | 34.50469 | -7.75561 | 26806 ft | 357 kts | 347° |
| 2026-05-04 18:08 | 34.52945 | -7.75789 | 27141 ft | 357 kts | 346° |
| 2026-05-04 18:08 | 34.55426 | -7.76018 | 27412 ft | 359 kts | 346° |
| 2026-05-04 18:09 | 34.60434 | -7.76475 | 27912 ft | 362 kts | 346° |
| 2026-05-04 18:09 | 34.65490 | -7.76926 | 28439 ft | 365 kts | 346° |
| 2026-05-04 18:10 | 34.68026 | -7.77151 | 28688 ft | 367 kts | 346° |
| 2026-05-04 18:10 | 34.70582 | -7.77377 | 28938 ft | 368 kts | 346° |
| 2026-05-04 18:10 | 34.73112 | -7.77601 | 29185 ft | 370 kts | 346° |
| 2026-05-04 18:10 | 34.75682 | -7.77823 | 29487 ft | 370 kts | 346° |
| 2026-05-04 18:11 | 34.78256 | -7.78039 | 29789 ft | 371 kts | 346° |
| 2026-05-04 18:11 | 34.80836 | -7.78253 | 30010 ft | 373 kts | 346° |
| 2026-05-04 18:11 | 34.86093 | -7.78699 | 30096 ft | 386 kts | 346° |
| 2026-05-04 18:12 | 34.91555 | -7.79167 | 30094 ft | 400 kts | 346° |
| 2026-05-04 18:12 | 34.97163 | -7.79631 | 30095 ft | 404 kts | 346° |
| 2026-05-04 18:13 | 35.02774 | -7.80086 | 30097 ft | 404 kts | 347° |
| 2026-05-04 18:14 | 35.11158 | -7.80781 | 30099 ft | 404 kts | 347° |
| 2026-05-04 18:14 | 35.16770 | -7.81254 | 30103 ft | 406 kts | 347° |
| 2026-05-04 18:15 | 35.28083 | -7.82204 | 30098 ft | 403 kts | 347° |
| 2026-05-04 18:16 | 35.33673 | -7.82675 | 30099 ft | 402 kts | 347° |
| 2026-05-04 18:16 | 35.39261 | -7.83150 | 30095 ft | 402 kts | 347° |
| 2026-05-04 18:17 | 35.47608 | -7.83885 | 30098 ft | 402 kts | 346° |
| 2026-05-04 18:17 | 35.53190 | -7.84390 | 29876 ft | 402 kts | 346° |
| 2026-05-04 18:18 | 35.55996 | -7.84646 | 29316 ft | 403 kts | 347° |
| 2026-05-04 18:18 | 35.58780 | -7.84896 | 29013 ft | 398 kts | 347° |
| 2026-05-04 18:18 | 35.61537 | -7.85140 | 28666 ft | 394 kts | 347° |
| 2026-05-04 18:18 | 35.64264 | -7.85383 | 28291 ft | 392 kts | 347° |
| 2026-05-04 18:19 | 35.69664 | -7.85870 | 27542 ft | 387 kts | 347° |
| 2026-05-04 18:19 | 35.72347 | -7.86114 | 27163 ft | 385 kts | 347° |
| 2026-05-04 18:19 | 35.75012 | -7.86356 | 26795 ft | 382 kts | 347° |
| 2026-05-04 18:20 | 35.77657 | -7.86597 | 26439 ft | 380 kts | 348° |
| 2026-05-04 18:20 | 35.80294 | -7.86836 | 26079 ft | 378 kts | 348° |
| 2026-05-04 18:20 | 35.82912 | -7.87075 | 25726 ft | 376 kts | 348° |
| 2026-05-04 18:20 | 35.85515 | -7.87311 | 25375 ft | 374 kts | 348° |
| 2026-05-04 18:21 | 35.88068 | -7.87543 | 25138 ft | 371 kts | 348° |
| 2026-05-04 18:21 | 35.90640 | -7.87777 | 25092 ft | 371 kts | 348° |
| 2026-05-04 18:21 | 35.93223 | -7.88015 | 25088 ft | 372 kts | 348° |
| 2026-05-04 18:21 | 35.95803 | -7.88254 | 25088 ft | 372 kts | 347° |
| 2026-05-04 18:22 | 35.98369 | -7.88583 | 25089 ft | 370 kts | 346° |
| 2026-05-04 18:22 | 36.00927 | -7.88967 | 25097 ft | 370 kts | 346° |
| 2026-05-04 18:22 | 36.03482 | -7.89360 | 25089 ft | 370 kts | 346° |
| 2026-05-04 18:22 | 36.06037 | -7.89753 | 25093 ft | 370 kts | 346° |
| 2026-05-04 18:23 | 36.08598 | -7.90145 | 25095 ft | 370 kts | 346° |
| 2026-05-04 18:23 | 36.11154 | -7.90536 | 25091 ft | 370 kts | 346° |
| 2026-05-04 18:23 | 36.13711 | -7.90927 | 25092 ft | 370 kts | 346° |
| 2026-05-04 18:23 | 36.16270 | -7.91318 | 25091 ft | 370 kts | 346° |
| 2026-05-04 18:24 | 36.18824 | -7.91709 | 25092 ft | 370 kts | 346° |
| 2026-05-04 18:24 | 36.21381 | -7.92100 | 25088 ft | 370 kts | 346° |
| 2026-05-04 18:24 | 36.23940 | -7.92492 | 25106 ft | 370 kts | 346° |
| 2026-05-04 18:24 | 36.26502 | -7.92884 | 25090 ft | 371 kts | 346° |
| 2026-05-04 18:25 | 36.29057 | -7.93276 | 25085 ft | 371 kts | 346° |
| 2026-05-04 18:25 | 36.31622 | -7.93669 | 25088 ft | 371 kts | 346° |
| 2026-05-04 18:25 | 36.34153 | -7.94057 | 24796 ft | 372 kts | 346° |
| 2026-05-04 18:25 | 36.36734 | -7.94455 | 24385 ft | 372 kts | 346° |
| 2026-05-04 18:26 | 36.39286 | -7.94844 | 24129 ft | 367 kts | 346° |
| 2026-05-04 18:26 | 36.41822 | -7.95233 | 23626 ft | 370 kts | 347° |
| 2026-05-04 18:26 | 36.44415 | -7.95638 | 22714 ft | 381 kts | 347° |
| 2026-05-04 18:26 | 36.47084 | -7.96054 | 21761 ft | 393 kts | 347° |
| 2026-05-04 18:27 | 36.49840 | -7.96481 | 20832 ft | 404 kts | 348° |
| 2026-05-04 18:27 | 36.52647 | -7.96913 | 20116 ft | 408 kts | 348° |
| 2026-05-04 18:27 | 36.55466 | -7.97344 | 19579 ft | 406 kts | 348° |
| 2026-05-04 18:27 | 36.58262 | -7.97772 | 19159 ft | 402 kts | 348° |
| 2026-05-04 18:28 | 36.61010 | -7.98192 | 18975 ft | 392 kts | 348° |
| 2026-05-04 18:28 | 36.63679 | -7.98600 | 18822 ft | 381 kts | 348° |
| 2026-05-04 18:28 | 36.66274 | -7.98999 | 18671 ft | 369 kts | 348° |
| 2026-05-04 18:28 | 36.68745 | -7.99378 | 18455 ft | 352 kts | 348° |
| 2026-05-04 18:29 | 36.71116 | -7.99741 | 18194 ft | 334 kts | 348° |
| 2026-05-04 18:29 | 36.73399 | -7.99963 | 17789 ft | 328 kts | 358° |
| 2026-05-04 18:29 | 36.75621 | -7.99281 | 17182 ft | 336 kts | 23° |
| 2026-05-04 18:29 | 36.77424 | -7.97396 | 16519 ft | 344 kts | 51° |
| 2026-05-04 18:30 | 36.79393 | -7.91961 | 15337 ft | 342 kts | 67° |
| 2026-05-04 18:30 | 36.80229 | -7.89191 | 14749 ft | 339 kts | 66° |
| 2026-05-04 18:30 | 36.81071 | -7.86455 | 14192 ft | 336 kts | 66° |
| 2026-05-04 18:31 | 36.81918 | -7.83755 | 13627 ft | 333 kts | 66° |
| 2026-05-04 18:31 | 36.82757 | -7.81113 | 13015 ft | 329 kts | 66° |
| 2026-05-04 18:31 | 36.83601 | -7.78468 | 12438 ft | 326 kts | 66° |
| 2026-05-04 18:31 | 36.84437 | -7.75857 | 11866 ft | 322 kts | 66° |
| 2026-05-04 18:32 | 36.85266 | -7.73270 | 11290 ft | 319 kts | 66° |
| 2026-05-04 18:32 | 36.86199 | -7.70787 | 10852 ft | 309 kts | 52° |
| 2026-05-04 18:32 | 36.87690 | -7.69023 | 10552 ft | 287 kts | 23° |
| 2026-05-04 18:32 | 36.89539 | -7.68323 | 10086 ft | 274 kts | 3° |
| 2026-05-04 18:33 | 36.91461 | -7.68067 | 9193 ft | 283 kts | 360° |
| 2026-05-04 18:33 | 36.93460 | -7.67884 | 8226 ft | 293 kts | 1° |
| 2026-05-04 18:33 | 36.95524 | -7.67687 | 7407 ft | 298 kts | 0° |
| 2026-05-04 18:33 | 36.97559 | -7.67431 | 6754 ft | 298 kts | 8° |
| 2026-05-04 18:34 | 36.99507 | -7.66543 | 6310 ft | 301 kts | 31° |
| 2026-05-04 18:34 | 37.00998 | -7.64745 | 6044 ft | 298 kts | 57° |
| 2026-05-04 18:34 | 37.01642 | -7.62330 | 5815 ft | 294 kts | 86° |
| 2026-05-04 18:34 | 37.01266 | -7.59852 | 5544 ft | 290 kts | 115° |
| 2026-05-04 18:35 | 37.00010 | -7.57916 | 5076 ft | 291 kts | 145° |
| 2026-05-04 18:35 | 36.98172 | -7.56893 | 4621 ft | 292 kts | 171° |
| 2026-05-04 18:35 | 36.96148 | -7.56808 | 4179 ft | 291 kts | 186° |
| 2026-05-04 18:35 | 36.94150 | -7.57012 | 4003 ft | 284 kts | 187° |
| 2026-05-04 18:36 | 36.92195 | -7.57313 | 3994 ft | 284 kts | 192° |
| 2026-05-04 18:36 | 36.90227 | -7.57696 | 3999 ft | 287 kts | 189° |
| 2026-05-04 18:36 | 36.88263 | -7.58117 | 3995 ft | 285 kts | 204° |
| 2026-05-04 18:36 | 36.86611 | -7.59347 | 4000 ft | 278 kts | 226° |
| 2026-05-04 18:37 | 36.85530 | -7.61276 | 3996 ft | 269 kts | 253° |
| 2026-05-04 18:37 | 36.85285 | -7.63544 | 4006 ft | 265 kts | 279° |
| 2026-05-04 18:37 | 36.85874 | -7.65698 | 4002 ft | 264 kts | 302° |
| 2026-05-04 18:37 | 36.87130 | -7.67345 | 4003 ft | 264 kts | 327° |
| 2026-05-04 18:38 | 36.88833 | -7.68158 | 4010 ft | 265 kts | 350° |
| 2026-05-04 18:38 | 36.90679 | -7.68189 | 3999 ft | 266 kts | 0° |
| 2026-05-04 18:38 | 36.92534 | -7.68019 | 3999 ft | 267 kts | 1° |
| 2026-05-04 18:38 | 36.94392 | -7.67829 | 4005 ft | 268 kts | 3° |
| 2026-05-04 18:39 | 36.96254 | -7.67647 | 3996 ft | 268 kts | 2° |
| 2026-05-04 18:39 | 36.98082 | -7.67638 | 3992 ft | 256 kts | 346° |
| 2026-05-04 18:39 | 36.99541 | -7.68652 | 4003 ft | 239 kts | 311° |
| 2026-05-04 18:39 | 37.00174 | -7.70503 | 4002 ft | 235 kts | 276° |
| 2026-05-04 18:40 | 37.00056 | -7.71878 | 3995 ft | 233 kts | 261° |
| 2026-05-04 18:40 | 36.99424 | -7.74389 | 3889 ft | 228 kts | 255° |
| 2026-05-04 18:40 | 36.99093 | -7.75642 | 3651 ft | 228 kts | 259° |
| 2026-05-04 18:40 | 36.98866 | -7.77565 | 3414 ft | 220 kts | 274° |
| 2026-05-04 18:41 | 36.99005 | -7.79449 | 3172 ft | 214 kts | 283° |
| 2026-05-04 18:41 | 36.99270 | -7.81249 | 3062 ft | 206 kts | 283° |
| 2026-05-04 18:41 | 36.99517 | -7.82982 | 2986 ft | 198 kts | 283° |
| 2026-05-04 18:41 | 36.99749 | -7.84655 | 2583 ft | 194 kts | 282° |
| 2026-05-04 18:42 | 36.99979 | -7.86309 | 2147 ft | 190 kts | 282° |
| 2026-05-04 18:42 | 37.00209 | -7.87931 | 1728 ft | 185 kts | 282° |
| 2026-05-04 18:42 | 37.00422 | -7.89435 | 1469 ft | 169 kts | 285° |
| 2026-05-04 18:42 | 37.00611 | -7.90890 | 1007 ft | 170 kts | 281° |
| 2026-05-04 18:43 | 37.00824 | -7.92332 | 653 ft | 165 kts | 280° |
| 2026-05-04 18:43 | 37.01014 | -7.93720 | 380 ft | 158 kts | 283° |
| 2026-05-04 18:43 | 37.01208 | -7.95097 | 168 ft | 164 kts | 284° |
| 2026-05-04 18:43 | 37.01424 | -7.96496 | 35 ft | 164 kts | 282° |
| 2026-05-04 18:44 | 37.01587 | -7.97572 | 25 ft | 78 kts | 281° |
| 2026-05-04 18:44 | 37.01637 | -7.97899 | 27 ft | 46 kts | 281° |
| 2026-05-04 18:44 | 37.01759 | -7.98198 | 28 ft | 0 kts | 317° |
| 2026-05-04 18:45 | 37.01804 | -7.98227 | 29 ft | 12 kts | 348° |
| 2026-05-04 18:45 | 37.01857 | -7.98171 | 29 ft | 11 kts | 86° |
| 2026-05-04 18:46 | 37.01832 | -7.98026 | 28 ft | 26 kts | 98° |
| 2026-05-04 18:46 | 37.01793 | -7.97736 | 27 ft | 37 kts | 99° |
| 2026-05-04 18:46 | 37.01743 | -7.97429 | 28 ft | 35 kts | 99° |
| 2026-05-04 18:46 | 37.01706 | -7.97142 | 25 ft | 24 kts | 99° |
| 2026-05-04 18:47 | 37.01689 | -7.97024 | 28 ft | 13 kts | 103° |
| 2026-05-04 18:47 | 37.01691 | -7.96925 | 29 ft | 9 kts | 59° |
| 2026-05-04 18:47 | 37.01721 | -7.96904 | 26 ft | 6 kts | 17° |
| 2026-05-04 18:47 | 37.01785 | -7.96885 | 28 ft | 12 kts | 15° |
| 2026-05-04 18:48 | 37.01877 | -7.96846 | 26 ft | 16 kts | 9° |
| 2026-05-04 18:48 | 37.01912 | -7.96838 | 25 ft | 3 kts | 10° |
| 2026-05-04 18:48 | 37.01915 | -7.96838 | 24 ft | 0 kts | 10° |